^^
Datos históricos de la estación: Murcia-Puente Tocinos
Diario Informe para Agosto 09, 2020 Unidades:  Métrico    Ingés   Ambas
Diario Semanal Mensual Anual
  Máxima: Mínima: Promedio:
Temperatura: 36.1 °C 23.6 °C 29.2 °C
Punto de rocio: 21.6 °C 12.3 °C 16.2 °C
Humedad: 75.9% 24.5% 49%
Velocidad viento: 20.9km/h 0km/h 8.6km/h
Racha viento: 42.6km/h - -
Viento- - Este
Presión: 1016.3 hPa 1010.6 hPa -
Precipitación: 0.0 mm    
 
 
Tabla de datos para Agosto 09, 2020
Hora Temperatura Punto de rocio Presión Viento Velocidad viento Racha viento Humedad Intensidad lluvia(por hora) Nubes
00:04 25.7 °C 19.7 °C 1016.3 hPa NO 4.9 km/h 8 km/h 69.5% 0.0 mm
00:09 25.7 °C 19.8 °C 1016.3 hPa NO 4.7 km/h 8 km/h 70% 0.0 mm
00:14 25.7 °C 20 °C 1016.2 hPa NO 4.6 km/h 8 km/h 70.7% 0.0 mm
00:19 25.7 °C 20.1 °C 1016.2 hPa ONO 4.6 km/h 3.9 km/h 71% 0.0 mm
00:24 25.7 °C 20.2 °C 1016.2 hPa ONO 4.2 km/h 4.7 km/h 71.8% 0.0 mm
00:29 25.7 °C 20.3 °C 1016.2 hPa NO 2.2 km/h 5 km/h 72% 0.0 mm
00:34 25.7 °C 20.3 °C 1016.2 hPa NO 1.8 km/h 4.8 km/h 72% 0.0 mm
00:39 25.7 °C 20.3 °C 1016.2 hPa Calm   4.8 km/h 72% 0.0 mm
00:44 25.7 °C 20.3 °C 1015.9 hPa OSO 0.5 km/h 7.4 km/h 72% 0.0 mm
00:49 25.7 °C 20.3 °C 1015.9 hPa OSO 2.2 km/h 8 km/h 72% 0.0 mm
00:54 25.8 °C 20.4 °C 1016.0 hPa SO 2.2 km/h 8 km/h 72% 0.0 mm
00:59 25.8 °C 20.4 °C 1016.0 hPa OSO 2.2 km/h 5.8 km/h 72% 0.0 mm
01:04 25.7 °C 20.2 °C 1016.0 hPa NNE 2.4 km/h 6.4 km/h 71.4% 0.0 mm
01:09 25.7 °C 20 °C 1016.0 hPa ENE 2.9 km/h 7.6 km/h 71% 0.0 mm
01:14 25.5 °C 19.9 °C 1015.7 hPa Este 3.3 km/h 8.4 km/h 71% 0.0 mm
01:19 25.4 °C 19.9 °C 1015.7 hPa Este 5 km/h 8.4 km/h 71.4% 0.0 mm
01:24 25.3 °C 19.9 °C 1015.7 hPa ENE 4.7 km/h 8 km/h 72% 0.0 mm
01:29 25.3 °C 19.9 °C 1015.6 hPa Este 3.9 km/h 6.4 km/h 72% 0.0 mm
01:34 25.2 °C 19.7 °C 1015.6 hPa Este 3.7 km/h 6.4 km/h 71.6% 0.0 mm
01:39 25.2 °C 19.1 °C 1015.6 hPa Este 3.2 km/h 4.8 km/h 69.2% 0.0 mm
01:44 25 °C 18.1 °C 1015.4 hPa Este 2.6 km/h 3.7 km/h 65.6% 0.0 mm
01:49 24.9 °C 17.7 °C 1015.4 hPa Calm   3.9 km/h 64.3% 0.0 mm
01:54 25.1 °C 19.1 °C 1015.4 hPa North 0.5 km/h 5.6 km/h 69.7% 0.0 mm
01:59 25.2 °C 19.7 °C 1015.3 hPa NNO 2.2 km/h 5.8 km/h 71.5% 0.0 mm
02:04 25.3 °C 19.8 °C 1015.3 hPa NO 2.6 km/h 8.4 km/h 71.6% 0.0 mm
02:09 25.1 °C 19.5 °C 1015.3 hPa NNO 3.9 km/h 8 km/h 71.3% 0.0 mm
02:14 24.9 °C 19 °C 1015.3 hPa NNE 3.9 km/h 8.4 km/h 69.8% 0.0 mm
02:19 24.7 °C 18 °C 1015.3 hPa NNE 3.9 km/h 8 km/h 66.8% 0.0 mm
02:24 24.4 °C 17.7 °C 1015.4 hPa NNE 3.7 km/h 8 km/h 66.2% 0.0 mm
02:29 24.4 °C 17.9 °C 1015.4 hPa NNE 3.2 km/h 4.8 km/h 67% 0.0 mm
02:34 24.4 °C 17.6 °C 1015.4 hPa ENE 3.2 km/h 7.4 km/h 65.9% 0.0 mm
02:39 24.4 °C 17.5 °C 1015.4 hPa ESE 2.9 km/h 8 km/h 65.2% 0.0 mm
02:44 24.4 °C 16 °C 1015.2 hPa ESE 3.1 km/h 8 km/h 59.5% 0.0 mm
02:49 24.5 °C 15.2 °C 1015.2 hPa ESE 3.9 km/h 8 km/h 56.3% 0.0 mm
02:54 24.6 °C 14 °C 1015.2 hPa ESE 3.9 km/h 8 km/h 51.8% 0.0 mm
02:59 24.7 °C 13.9 °C 1015.2 hPa ESE 3.9 km/h 8 km/h 51.3% 0.0 mm
03:04 24.8 °C 14.7 °C 1015.2 hPa ESE 3.7 km/h 6.9 km/h 53.5% 0.0 mm
03:09 25 °C 15.9 °C 1015.2 hPa Sur 3.2 km/h 8.4 km/h 57.1% 0.0 mm
03:14 25.1 °C 16.7 °C 1015.1 hPa Sur 3.6 km/h 8 km/h 59.6% 0.0 mm
03:19 25.1 °C 17 °C 1015.1 hPa SSE 5 km/h 8.4 km/h 60.7% 0.0 mm
03:24 25.2 °C 17.3 °C 1015.1 hPa SSE 4.7 km/h 8 km/h 61.5% 0.0 mm
03:29 25.2 °C 16.9 °C 1015.0 hPa SSE 3.9 km/h 8 km/h 60.1% 0.0 mm
03:34 25.2 °C 16.8 °C 1015.0 hPa SSE 3.9 km/h 7.6 km/h 59.5% 0.0 mm
03:39 25.3 °C 16.7 °C 1015.0 hPa SE 3.9 km/h 8 km/h 59% 0.0 mm
03:44 25.3 °C 16.4 °C 1014.9 hPa SE 3.7 km/h 5.8 km/h 57.9% 0.0 mm
03:49 25.2 °C 15.9 °C 1014.9 hPa SSE 2.9 km/h 7.6 km/h 56.4% 0.0 mm
03:54 25.2 °C 15.8 °C 1014.9 hPa Sur 3.3 km/h 8 km/h 55.9% 0.0 mm
03:59 25.2 °C 15.9 °C 1014.9 hPa Sur 5 km/h 8 km/h 56.3% 0.0 mm
04:04 25.3 °C 16.5 °C 1014.9 hPa SSO 4.8 km/h 8 km/h 58.2% 0.0 mm
04:09 25.3 °C 16.6 °C 1014.9 hPa SSO 3.9 km/h 8 km/h 58.4% 0.0 mm
04:14 25.4 °C 16.7 °C 1014.8 hPa SSO 3.5 km/h 3.9 km/h 58.8% 0.0 mm
04:19 25.4 °C 16.7 °C 1014.8 hPa SSO 2.2 km/h 3.9 km/h 58.7% 0.0 mm
04:24 25.4 °C 16.5 °C 1014.8 hPa SSO 2.2 km/h 3.7 km/h 57.8% 0.0 mm
04:29 25.3 °C 16.4 °C 1014.7 hPa SO 2.2 km/h 5.6 km/h 57.7% 0.0 mm
04:34 25.2 °C 16.4 °C 1014.7 hPa ONO 2.2 km/h 4.8 km/h 58% 0.0 mm
04:39 25.1 °C 16.3 °C 1014.7 hPa ONO 2.2 km/h 3.2 km/h 58% 0.0 mm
04:44 25.1 °C 16.3 °C 1014.6 hPa NO 1.9 km/h 1.6 km/h 58.4% 0.0 mm
04:49 24.9 °C 16 °C 1014.6 hPa Calm   3.7 km/h 57.9% 0.0 mm
04:54 24.9 °C 16.1 °C 1014.6 hPa Calm   5.8 km/h 58% 0.0 mm
04:59 24.9 °C 16.5 °C 1014.6 hPa Calm   6.4 km/h 59.8% 0.0 mm
05:04 24.9 °C 16.6 °C 1014.6 hPa ONO 0.6 km/h 6.4 km/h 60% 0.0 mm
05:09 24.9 °C 16.8 °C 1014.6 hPa Oeste 2.9 km/h 5.6 km/h 61% 0.0 mm
05:14 24.9 °C 16.8 °C 1014.6 hPa SSO 2.9 km/h 7.4 km/h 61% 0.0 mm
05:19 24.9 °C 16.6 °C 1014.6 hPa Sur 2.9 km/h 8 km/h 60.1% 0.0 mm
05:24 24.9 °C 16.7 °C 1014.7 hPa SSO 2.9 km/h 4.8 km/h 60.3% 0.0 mm
05:29 24.9 °C 16.8 °C 1014.7 hPa Oeste 2.9 km/h 4.8 km/h 61% 0.0 mm
05:34 24.8 °C 16.7 °C 1014.7 hPa Oeste 2.8 km/h 4.8 km/h 60.8% 0.0 mm
05:39 24.7 °C 16.4 °C 1014.7 hPa Sur 2.2 km/h 7.4 km/h 60% 0.0 mm
05:44 24.7 °C 16.2 °C 1014.6 hPa SSE 2.4 km/h 8 km/h 59.4% 0.0 mm
05:49 24.7 °C 16.1 °C 1014.6 hPa SSE 3.2 km/h 8.4 km/h 58.6% 0.0 mm
05:54 24.7 °C 16.1 °C 1014.6 hPa SE 3.3 km/h 8 km/h 58.8% 0.0 mm
05:59 24.6 °C 16.1 °C 1014.4 hPa SSE 3.9 km/h 8 km/h 59% 0.0 mm
06:04 24.5 °C 16.2 °C 1014.4 hPa SSE 4 km/h 8 km/h 59.9% 0.0 mm
06:09 24.5 °C 16.2 °C 1014.4 hPa SSE 4.7 km/h 8 km/h 60% 0.0 mm
06:14 24.5 °C 16.2 °C 1014.4 hPa SE 4.3 km/h 6.4 km/h 60% 0.0 mm
06:19 24.4 °C 16.1 °C 1014.4 hPa NE 3.2 km/h 4.8 km/h 59.8% 0.0 mm
06:24 24.3 °C 16 °C 1014.4 hPa NE 3.2 km/h 5.8 km/h 60% 0.0 mm
06:29 24.1 °C 16.1 °C 1014.4 hPa ENE 2.9 km/h 6.4 km/h 60.8% 0.0 mm
06:34 23.9 °C 16 °C 1014.4 hPa Este 3.1 km/h 7.4 km/h 61.1% 0.0 mm
06:39 23.8 °C 16 °C 1014.4 hPa ESE 3.9 km/h 8 km/h 61.6% 0.0 mm
06:44 23.8 °C 16 °C 1014.4 hPa SE 3.9 km/h 8 km/h 61.9% 0.0 mm
06:49 23.8 °C 16.1 °C 1014.4 hPa ESE 3.9 km/h 8 km/h 62% 0.0 mm
06:54 23.7 °C 16.1 °C 1014.4 hPa NNO 3 km/h 4.8 km/h 62.6% 0.0 mm
06:59 23.7 °C 16.2 °C 1014.4 hPa Calm   3.7 km/h 63% 0.0 mm
07:04 23.7 °C 16.2 °C 1014.4 hPa Calm   4.7 km/h 63% 0.0 mm
07:09 23.6 °C 15.9 °C 1014.4 hPa Calm   4.8 km/h 62.1% 0.0 mm
07:14 23.7 °C 15.9 °C 1014.2 hPa NNO 0.5 km/h 4.8 km/h 62% 0.0 mm
07:19 23.7 °C 16 °C 1014.2 hPa NNE 2.9 km/h 7.4 km/h 62% 0.0 mm
07:24 23.7 °C 16 °C 1014.2 hPa ESE 3.1 km/h 8 km/h 62% 0.0 mm
07:29 23.7 °C 16 °C 1014.2 hPa SSE 3.9 km/h 8 km/h 62% 0.0 mm
07:34 23.7 °C 16 °C 1014.2 hPa SSE 3.9 km/h 8 km/h 62% 0.0 mm
07:39 23.7 °C 16 °C 1014.2 hPa SSE 3.9 km/h 4.8 km/h 62% 0.0 mm
07:44 23.7 °C 16 °C 1014.2 hPa SSE 3.5 km/h 4.7 km/h 62% 0.0 mm
07:49 23.8 °C 16 °C 1014.2 hPa SSE 2.2 km/h 4.8 km/h 62% 0.0 mm
07:54 23.8 °C 16.2 °C 1014.2 hPa SSE 2.2 km/h 4.8 km/h 62.5% 0.0 mm
07:59 23.9 °C 16.2 °C 1014.2 hPa SSE 2.2 km/h 2.3 km/h 62.3% 0.0 mm
08:04 23.9 °C 16.1 °C 1014.2 hPa SSE 2.2 km/h 5.8 km/h 61.8% 0.0 mm
08:09 24 °C 16 °C 1014.3 hPa SSE 2.2 km/h 9.5 km/h 61% 0.0 mm
08:14 24.1 °C 15.9 °C 1014.3 hPa SSE 2.8 km/h 9.7 km/h 60.2% 0.0 mm
08:19 24.2 °C 15.9 °C 1014.3 hPa SSE 5 km/h 10 km/h 60% 0.0 mm
08:24 24.3 °C 15.9 °C 1014.4 hPa SSE 5.4 km/h 11.1 km/h 59.4% 0.0 mm
08:29 24.3 °C 15.9 °C 1014.4 hPa SE 6.9 km/h 13 km/h 59.2% 0.0 mm
08:34 24.3 °C 16 °C 1014.4 hPa SE 7.3 km/h 12.9 km/h 60% 0.0 mm
08:39 24.1 °C 15.9 °C 1014.4 hPa SE 8.4 km/h 11.9 km/h 60% 0.0 mm
08:44 24.1 °C 15.8 °C 1014.4 hPa SSE 8.4 km/h 15.6 km/h 60% 0.0 mm
08:49 24.1 °C 15.7 °C 1014.4 hPa SSE 8.7 km/h 16.1 km/h 59.4% 0.0 mm
08:54 24.2 °C 15.6 °C 1014.5 hPa Sur 8.7 km/h 13.7 km/h 58.9% 0.0 mm
08:59 24.3 °C 15.5 °C 1014.5 hPa SSE 8.4 km/h 14.5 km/h 58.1% 0.0 mm
09:04 24.6 °C 15.6 °C 1014.5 hPa SSE 8.2 km/h 11.3 km/h 57.4% 0.0 mm
09:09 24.7 °C 15.5 °C 1014.6 hPa Sur 7.6 km/h 11.3 km/h 56.3% 0.0 mm
09:14 24.8 °C 15.3 °C 1014.6 hPa Sur 7.4 km/h 9.7 km/h 55.4% 0.0 mm
09:19 24.8 °C 15.2 °C 1014.6 hPa Sur 6.5 km/h 9.7 km/h 55% 0.0 mm
09:24 25 °C 15.3 °C 1014.7 hPa SSO 5.9 km/h 8 km/h 55% 0.0 mm
09:29 25.2 °C 15.5 °C 1014.7 hPa SSO 3.9 km/h 8 km/h 54.7% 0.0 mm
09:34 25.5 °C 15.5 °C 1014.7 hPa OSO 3.9 km/h 8 km/h 54% 0.0 mm
09:39 25.6 °C 15.6 °C 1014.8 hPa SSO 3.9 km/h 8 km/h 54% 0.0 mm
09:44 25.7 °C 15.7 °C 1014.8 hPa SSO 3.9 km/h 8 km/h 54% 0.0 mm
09:49 25.8 °C 15.6 °C 1014.8 hPa OSO 3.9 km/h 8 km/h 53.4% 0.0 mm
09:54 25.8 °C 15.5 °C 1014.8 hPa Oeste 3.7 km/h 8 km/h 53% 0.0 mm
09:59 25.9 °C 15.7 °C 1014.7 hPa OSO 3.2 km/h 5.8 km/h 53.3% 0.0 mm
10:04 26.2 °C 15.8 °C 1014.7 hPa SSO 3 km/h 7.6 km/h 52.8% 0.0 mm
10:09 26.5 °C 15.9 °C 1014.7 hPa SSE 2.2 km/h 8.4 km/h 52% 0.0 mm
10:14 26.8 °C 15.9 °C 1014.6 hPa SSE 2.7 km/h 8 km/h 51.1% 0.0 mm
10:19 27.1 °C 15.7 °C 1014.6 hPa SSO 4.7 km/h 8 km/h 50% 0.0 mm
10:24 27.4 °C 15.7 °C 1014.6 hPa SSO 4.2 km/h 4.8 km/h 49% 0.0 mm
10:29 27.9 °C 15.9 °C 1014.5 hPa Sur 2.2 km/h 3.9 km/h 48.2% 0.0 mm
10:34 28.5 °C 15.8 °C 1014.5 hPa SO 2.2 km/h 6.4 km/h 45.9% 0.0 mm
10:39 28.8 °C 15.4 °C 1014.6 hPa Oeste 2.2 km/h 8 km/h 44.2% 0.0 mm
10:44 29.1 °C 15.4 °C 1014.6 hPa ONO 2.4 km/h 8 km/h 43.6% 0.0 mm
10:49 29.3 °C 15.4 °C 1014.6 hPa NO 2.9 km/h 8 km/h 42.8% 0.0 mm
10:54 29.7 °C 15.1 °C 1014.6 hPa North 3 km/h 8 km/h 41.2% 0.0 mm
10:59 29.9 °C 15 °C 1014.6 hPa ENE 3.2 km/h 8 km/h 40.5% 0.0 mm
11:04 30.2 °C 14.7 °C 1014.6 hPa NNO 3.2 km/h 8 km/h 39.1% 0.0 mm
11:09 30.3 °C 14.8 °C 1014.6 hPa NO 3.2 km/h 9.3 km/h 38.8% 0.0 mm
11:14 30.3 °C 14.8 °C 1014.5 hPa North 3.5 km/h 9.7 km/h 38.9% 0.0 mm
11:19 30.3 °C 14.8 °C 1014.5 hPa North 4.7 km/h 9.7 km/h 39% 0.0 mm
11:24 30.6 °C 14.5 °C 1014.5 hPa NNE 4.7 km/h 9.3 km/h 37.6% 0.0 mm
11:29 30.7 °C 14.3 °C 1014.4 hPa North 4.7 km/h 9.7 km/h 36.9% 0.0 mm
11:34 30.8 °C 14.4 °C 1014.4 hPa North 4.9 km/h 10.3 km/h 37.1% 0.0 mm
11:39 30.8 °C 13.3 °C 1014.4 hPa NNE 5.8 km/h 11.9 km/h 34.3% 0.0 mm
11:44 31 °C 13.7 °C 1014.3 hPa NNE 6.1 km/h 12.9 km/h 35% 0.0 mm
11:49 31.3 °C 13.7 °C 1014.3 hPa NNE 7.6 km/h 12.9 km/h 34.4% 0.0 mm
11:54 31.7 °C 13.5 °C 1014.3 hPa NNE 7.4 km/h 13.7 km/h 33.1% 0.0 mm
11:59 31.8 °C 13.6 °C 1014.3 hPa NNE 6.9 km/h 14.5 km/h 33% 0.0 mm
12:04 31.9 °C 13.6 °C 1014.3 hPa NNE 7.2 km/h 15.6 km/h 33% 0.0 mm
12:09 32 °C 13.7 °C 1014.3 hPa NNE 8.7 km/h 16.1 km/h 33% 0.0 mm
12:14 32.3 °C 13.8 °C 1014.2 hPa NNE 8.7 km/h 14.8 km/h 32.7% 0.0 mm
12:19 32.6 °C 14.2 °C 1014.2 hPa North 8.7 km/h 16.7 km/h 32.9% 0.0 mm
12:24 32.8 °C 14.3 °C 1014.2 hPa NNE 8.8 km/h 16.7 km/h 32.7% 0.0 mm
12:29 33.1 °C 14.5 °C 1014.1 hPa NNE 9.5 km/h 20.1 km/h 32.7% 0.0 mm
12:34 33.2 °C 14.3 °C 1014.1 hPa NNE 9.3 km/h 20.9 km/h 32% 0.0 mm
12:39 33.3 °C 14.4 °C 1014.1 hPa NNE 8.7 km/h 20.9 km/h 32% 0.0 mm
12:44 33.4 °C 13.9 °C 1014.1 hPa NE 9.1 km/h 17.2 km/h 30.9% 0.0 mm
12:49 33.6 °C 13.8 °C 1014.1 hPa NE 11.1 km/h 17.7 km/h 30.3% 0.0 mm
12:54 33.8 °C 13.8 °C 1014.1 hPa North 10.4 km/h 16.7 km/h 30% 0.0 mm
12:59 34.2 °C 13.8 °C 1013.9 hPa NNE 7.6 km/h 18.5 km/h 29.3% 0.0 mm
13:04 34.3 °C 13.8 °C 1013.9 hPa NNE 8.1 km/h 22.2 km/h 29.1% 0.0 mm
13:09 34.3 °C 13.7 °C 1013.9 hPa NNE 10.3 km/h 22.5 km/h 28.9% 0.0 mm
13:14 34.4 °C 13.6 °C 1013.9 hPa NNE 10.4 km/h 22.5 km/h 28.7% 0.0 mm
13:19 34.6 °C 13.3 °C 1013.9 hPa NNE 11.1 km/h 22.5 km/h 27.8% 0.0 mm
13:24 34.6 °C 13.6 °C 1013.9 hPa North 11.7 km/h 24.5 km/h 28.3% 0.0 mm
13:29 34.6 °C 14.2 °C 1013.8 hPa NNE 14.8 km/h 27.8 km/h 29.4% 0.0 mm
13:34 34.7 °C 15 °C 1013.8 hPa NNE 14.8 km/h 24.5 km/h 30.7% 0.0 mm
13:39 34.6 °C 15.3 °C 1013.8 hPa NNE 14.8 km/h 24.1 km/h 31.7% 0.0 mm
13:44 34.4 °C 15.3 °C 1013.6 hPa NNE 15 km/h 25.1 km/h 32% 0.0 mm
13:49 34.4 °C 15.3 °C 1013.6 hPa NNE 16.1 km/h 27 km/h 32% 0.0 mm
13:54 34.4 °C 14.9 °C 1013.6 hPa NNE 16.1 km/h 27.8 km/h 31.1% 0.0 mm
13:59 34.5 °C 14.4 °C 1013.6 hPa NNE 16.1 km/h 27.4 km/h 30% 0.0 mm
14:04 34.7 °C 14.1 °C 1013.6 hPa NNE 16.3 km/h 29.1 km/h 29.2% 0.0 mm
14:09 34.6 °C 13.9 °C 1013.6 hPa NNE 17.2 km/h 30.6 km/h 29% 0.0 mm
14:14 34.8 °C 13.7 °C 1013.4 hPa NE 17.2 km/h 30.6 km/h 28.2% 0.0 mm
14:19 34.7 °C 13.5 °C 1013.4 hPa NNE 17.2 km/h 29.6 km/h 27.9% 0.0 mm
14:24 34.7 °C 13.5 °C 1013.4 hPa NNE 17.6 km/h 27.8 km/h 28% 0.0 mm
14:29 34.8 °C 13.6 °C 1013.2 hPa NNE 19 km/h 27.4 km/h 28% 0.0 mm
14:34 34.9 °C 14 °C 1013.2 hPa NNE 18.7 km/h 30.9 km/h 28.6% 0.0 mm
14:39 35.1 °C 13.9 °C 1013.2 hPa NE 17.2 km/h 31.5 km/h 28.1% 0.0 mm
14:44 35.2 °C 13.9 °C 1013.0 hPa NNE 17.5 km/h 33.5 km/h 28% 0.0 mm
14:49 35.2 °C 13.9 °C 1013.0 hPa NE 19 km/h 33.8 km/h 27.8% 0.0 mm
14:54 35.2 °C 13.4 °C 1013.0 hPa NE 18.6 km/h 32.3 km/h 27.1% 0.0 mm
14:59 35.2 °C 13.9 °C 1012.9 hPa NNE 17.2 km/h 33.8 km/h 28% 0.0 mm
15:04 35.3 °C 13.9 °C 1012.9 hPa NNE 17 km/h 30.9 km/h 27.7% 0.0 mm
15:09 35.3 °C 13.8 °C 1012.9 hPa NNE 16.4 km/h 33.3 km/h 27.7% 0.0 mm
15:14 35.2 °C 13.3 °C 1012.8 hPa NE 17.1 km/h 33.8 km/h 27% 0.0 mm
15:19 35.2 °C 13.4 °C 1012.8 hPa NE 19.8 km/h 33.5 km/h 27% 0.0 mm
15:24 35.2 °C 13.5 °C 1012.8 hPa NNE 19.5 km/h 33.8 km/h 27.2% 0.0 mm
15:29 35.3 °C 13.3 °C 1012.6 hPa NNE 18.4 km/h 31.7 km/h 26.6% 0.0 mm
15:34 35.7 °C 13.5 °C 1012.6 hPa NNE 18.1 km/h 32.2 km/h 26.6% 0.0 mm
15:39 35.7 °C 14.1 °C 1012.6 hPa NE 17.2 km/h 34.3 km/h 27.5% 0.0 mm
15:44 35.8 °C 13.3 °C 1012.4 hPa NE 17.6 km/h 37.8 km/h 26% 0.0 mm
15:49 35.7 °C 13.2 °C 1012.4 hPa NNE 19 km/h 37 km/h 26% 0.0 mm
15:54 35.7 °C 13.4 °C 1012.4 hPa NE 19.2 km/h 33.8 km/h 26.3% 0.0 mm
15:59 35.8 °C 13.3 °C 1012.3 hPa NNE 19.8 km/h 33.8 km/h 26% 0.0 mm
16:04 35.7 °C 13.8 °C 1012.3 hPa NE 19.8 km/h 39.6 km/h 27% 0.0 mm
16:09 35.7 °C 13.7 °C 1012.3 hPa NE 19.8 km/h 40.2 km/h 26.9% 0.0 mm
16:14 35.8 °C 13.9 °C 1012.1 hPa NE 20 km/h 42.6 km/h 27% 0.0 mm
16:19 35.8 °C 14.3 °C 1012.1 hPa NE 20.9 km/h 42.6 km/h 27.6% 0.0 mm
16:24 35.9 °C 14.3 °C 1012.1 hPa NNE 20.5 km/h 38.9 km/h 27.6% 0.0 mm
16:29 35.8 °C 14.4 °C 1012.0 hPa NE 18.4 km/h 38.6 km/h 28% 0.0 mm
16:34 35.8 °C 14.8 °C 1012.0 hPa NE 17.6 km/h 32.2 km/h 28.6% 0.0 mm
16:39 35.8 °C 14.5 °C 1012.0 hPa NE 14 km/h 25.1 km/h 28% 0.0 mm
16:44 35.8 °C 14.4 °C 1011.9 hPa ENE 14 km/h 25.7 km/h 27.9% 0.0 mm
16:49 35.8 °C 14.5 °C 1011.9 hPa ENE 14 km/h 24.1 km/h 28% 0.0 mm
16:54 35.9 °C 14.5 °C 1011.9 hPa NE 13.5 km/h 24.1 km/h 27.9% 0.0 mm
16:59 36.1 °C 14.7 °C 1011.8 hPa ENE 11.1 km/h 27.8 km/h 28% 0.0 mm
17:04 35.9 °C 14.3 °C 1011.8 hPa NNE 11.6 km/h 28.2 km/h 27.5% 0.0 mm
17:09 35.8 °C 14.4 °C 1011.8 hPa NE 13.7 km/h 28.2 km/h 27.9% 0.0 mm
17:14 35.8 °C 14.4 °C 1011.6 hPa ENE 13.7 km/h 27.4 km/h 27.9% 0.0 mm
17:19 35.9 °C 14.2 °C 1011.6 hPa NE 13.7 km/h 24.1 km/h 27.5% 0.0 mm
17:24 35.8 °C 13.9 °C 1011.6 hPa NE 13.7 km/h 26.2 km/h 27% 0.0 mm
17:29 35.8 °C 13.4 °C 1011.5 hPa NE 13.7 km/h 25.9 km/h 26.2% 0.0 mm
17:34 35.8 °C 13.6 °C 1011.5 hPa NE 13.4 km/h 24.1 km/h 26.5% 0.0 mm
17:39 35.8 °C 13.3 °C 1011.5 hPa NE 12.2 km/h 26.2 km/h 26% 0.0 mm
17:44 35.7 °C 13.3 °C 1011.4 hPa NE 12.5 km/h 25.7 km/h 26.1% 0.0 mm
17:49 35.7 °C 13.5 °C 1011.4 hPa ENE 13.7 km/h 29.6 km/h 26.5% 0.0 mm
17:54 35.7 °C 13.8 °C 1011.4 hPa NE 13.3 km/h 29 km/h 27% 0.0 mm
17:59 35.7 °C 13.7 °C 1011.3 hPa NE 12.2 km/h 27.8 km/h 26.9% 0.0 mm
18:04 35.5 °C 13.6 °C 1011.3 hPa NE 12.4 km/h 27.4 km/h 27% 0.0 mm
18:09 35.7 °C 13.7 °C 1011.3 hPa NE 13 km/h 22.5 km/h 27% 0.0 mm
18:14 35.7 °C 13.3 °C 1011.1 hPa ENE 12.9 km/h 23.7 km/h 26.2% 0.0 mm
18:19 35.7 °C 13.2 °C 1011.1 hPa NE 12.2 km/h 25.9 km/h 26% 0.0 mm
18:24 35.7 °C 13.2 °C 1011.1 hPa NE 11.9 km/h 25.7 km/h 26% 0.0 mm
18:29 35.8 °C 13.3 °C 1011.1 hPa NE 10.3 km/h 19.3 km/h 26% 0.0 mm
18:34 35.7 °C 12.3 °C 1011.1 hPa NNE 10.4 km/h 37 km/h 24.5% 0.0 mm
18:39 35.7 °C 12.5 °C 1011.1 hPa NE 11.1 km/h 26.2 km/h 24.8% 0.0 mm
18:44 35.2 °C 13.7 °C 1011.0 hPa NNE 11.6 km/h 25.9 km/h 27.5% 0.0 mm
18:49 34.9 °C 14.1 °C 1011.0 hPa NNE 13.7 km/h 25.9 km/h 28.8% 0.0 mm
18:54 34.6 °C 14.6 °C 1011.0 hPa NNE 14.1 km/h 25.9 km/h 30.1% 0.0 mm
18:59 34.3 °C 14.9 °C 1010.9 hPa NNE 16.1 km/h 25.9 km/h 31.2% 0.0 mm
19:04 34.2 °C 15.1 °C 1010.9 hPa NNE 16.1 km/h 27.8 km/h 32% 0.0 mm
19:09 34.1 °C 15.3 °C 1010.9 hPa NNE 16.1 km/h 27.4 km/h 32.5% 0.0 mm
19:14 34.1 °C 15.3 °C 1010.9 hPa NNE 15.7 km/h 25.9 km/h 32.5% 0.0 mm
19:19 33.8 °C 14.9 °C 1010.9 hPa NNE 14 km/h 25.7 km/h 32.2% 0.0 mm
19:24 33.7 °C 15 °C 1010.9 hPa NNE 14.7 km/h 27.8 km/h 32.7% 0.0 mm
19:29 33.5 °C 15.2 °C 1010.8 hPa NNE 17.2 km/h 27.4 km/h 33.3% 0.0 mm
19:34 33.3 °C 14.8 °C 1010.8 hPa NE 17.3 km/h 28.2 km/h 32.9% 0.0 mm
19:39 33.3 °C 14.7 °C 1010.8 hPa NE 18 km/h 29.6 km/h 32.8% 0.0 mm
19:44 33.2 °C 14.5 °C 1010.6 hPa NNE 17.8 km/h 27.8 km/h 32.5% 0.0 mm
19:49 33.2 °C 14.5 °C 1010.6 hPa NNE 16.4 km/h 29.6 km/h 32.4% 0.0 mm
19:54 33.1 °C 14.6 °C 1010.7 hPa NE 16.1 km/h 29 km/h 33% 0.0 mm
19:59 32.9 °C 14.8 °C 1010.7 hPa NNE 14.8 km/h 26.2 km/h 33.6% 0.0 mm
20:04 32.7 °C 15.3 °C 1010.7 hPa NNE 15 km/h 25.9 km/h 35.2% 0.0 mm
20:09 32.5 °C 15.4 °C 1010.8 hPa NNE 15.6 km/h 25.7 km/h 35.8% 0.0 mm
20:14 32.3 °C 15.2 °C 1010.8 hPa NNE 15.3 km/h 22.2 km/h 35.6% 0.0 mm
20:19 32.2 °C 15.5 °C 1010.8 hPa NNE 14 km/h 22.5 km/h 36.7% 0.0 mm
20:24 32 °C 16.3 °C 1011.0 hPa NNE 14.3 km/h 25.9 km/h 38.9% 0.0 mm
20:29 31.8 °C 17 °C 1011.0 hPa NNE 15.6 km/h 25.9 km/h 41.2% 0.0 mm
20:34 31.5 °C 17.3 °C 1011.0 hPa NE 15.4 km/h 25.7 km/h 42.7% 0.0 mm
20:39 31.2 °C 17.6 °C 1011.2 hPa NNE 14.8 km/h 22.5 km/h 44.1% 0.0 mm
20:44 31 °C 17.8 °C 1011.2 hPa NNE 14.4 km/h 22.2 km/h 45.5% 0.0 mm
20:49 30.8 °C 18 °C 1011.2 hPa NE 13 km/h 22.5 km/h 46.4% 0.0 mm
20:54 30.8 °C 18.3 °C 1011.3 hPa NE 12.8 km/h 22.2 km/h 47.6% 0.0 mm
20:59 30.5 °C 18.4 °C 1011.3 hPa NNE 11.9 km/h 22.5 km/h 48.5% 0.0 mm
21:04 30.3 °C 18.5 °C 1011.3 hPa NNE 11.7 km/h 20.9 km/h 49.2% 0.0 mm
21:09 30.2 °C 18.9 °C 1011.5 hPa NNE 11.1 km/h 16.1 km/h 51% 0.0 mm
21:14 29.8 °C 19.1 °C 1011.5 hPa NNE 11 km/h 16.7 km/h 52.4% 0.0 mm
21:19 29.6 °C 19 °C 1011.5 hPa North 10.3 km/h 16.1 km/h 53% 0.0 mm
21:24 29.3 °C 18.7 °C 1011.6 hPa NNE 10.2 km/h 17.2 km/h 53% 0.0 mm
21:29 29 °C 18.7 °C 1011.6 hPa NNE 10 km/h 17.7 km/h 53.5% 0.0 mm
21:34 28.8 °C 18.6 °C 1011.6 hPa NNE 10 km/h 18.5 km/h 54.1% 0.0 mm
21:39 28.7 °C 18.7 °C 1011.9 hPa NNE 10.3 km/h 19.3 km/h 55% 0.0 mm
21:44 28.5 °C 18.6 °C 1011.9 hPa NNE 10.4 km/h 20.4 km/h 55% 0.0 mm
21:49 28.3 °C 18.7 °C 1011.9 hPa NNE 11.1 km/h 22.2 km/h 55.8% 0.0 mm
21:54 28.2 °C 18.7 °C 1012.1 hPa NNE 11.3 km/h 22.5 km/h 56.2% 0.0 mm
21:59 28.1 °C 18.8 °C 1012.1 hPa NNE 12.2 km/h 22.5 km/h 57% 0.0 mm
22:04 28.1 °C 18.8 °C 1012.1 hPa NNE 12 km/h 19.3 km/h 57% 0.0 mm
22:09 28 °C 18.6 °C 1012.3 hPa NNE 11.1 km/h 16.7 km/h 57% 0.0 mm
22:14 27.8 °C 18.6 °C 1012.3 hPa NNE 10.6 km/h 16.1 km/h 57% 0.0 mm
22:19 27.8 °C 18.7 °C 1012.3 hPa NNE 8.7 km/h 16.7 km/h 57.8% 0.0 mm
22:24 27.7 °C 19 °C 1012.3 hPa NNE 8.8 km/h 16.1 km/h 59.2% 0.0 mm
22:29 27.6 °C 19.3 °C 1012.2 hPa NNE 9.5 km/h 16.7 km/h 60.6% 0.0 mm
22:34 27.4 °C 19.5 °C 1012.2 hPa NNE 9.7 km/h 18.5 km/h 61.8% 0.0 mm
22:39 27.4 °C 19.6 °C 1012.5 hPa NNE 10.3 km/h 19.3 km/h 62.3% 0.0 mm
22:44 27.3 °C 19.6 °C 1012.5 hPa NE 10.1 km/h 19 km/h 63% 0.0 mm
22:49 27.3 °C 20 °C 1012.5 hPa NNE 9.5 km/h 20.4 km/h 64.4% 0.0 mm
22:54 27.2 °C 20.2 °C 1012.5 hPa NNE 10 km/h 20.9 km/h 65.8% 0.0 mm
22:59 27.2 °C 20.5 °C 1012.4 hPa NNE 12.2 km/h 19.3 km/h 67.1% 0.0 mm
23:04 27 °C 20.8 °C 1012.4 hPa NNE 12.2 km/h 19.3 km/h 68.7% 0.0 mm
23:09 26.9 °C 20.9 °C 1012.5 hPa NNE 11.9 km/h 19.3 km/h 70% 0.0 mm
23:14 26.9 °C 21.2 °C 1012.5 hPa NNE 11.9 km/h 20.4 km/h 70.9% 0.0 mm
23:19 26.8 °C 21.3 °C 1012.5 hPa NNE 11.9 km/h 20.9 km/h 71.7% 0.0 mm
23:24 26.7 °C 21.5 °C 1012.5 hPa NE 12.2 km/h 20.9 km/h 73.3% 0.0 mm
23:29 26.6 °C 21.6 °C 1012.5 hPa NNE 13 km/h 20.9 km/h 74% 0.0 mm
23:34 26.5 °C 21.6 °C 1012.5 hPa NE 12.9 km/h 19.3 km/h 74.3% 0.0 mm
23:39 26.4 °C 21.6 °C 1012.5 hPa NE 12.2 km/h 19.3 km/h 75% 0.0 mm
23:44 26.4 °C 21.6 °C 1012.5 hPa NNE 12.2 km/h 17.7 km/h 75% 0.0 mm
23:49 26.4 °C 21.6 °C 1012.5 hPa NNE 11.9 km/h 14.8 km/h 75% 0.0 mm
23:54 26.3 °C 21.5 °C 1012.7 hPa NE 11.5 km/h 15.6 km/h 75% 0.0 mm
23:59 26.2 °C 21.6 °C 1012.7 hPa NNE 10 km/h 16.1 km/h 75.9% 0.0 mm
Murcia-Puente Tocinos, España
Compliments of Weather Underground - 3 mb

La estación de MeteoMurcia.com, publica sus datos en los siguientes proyectos:

Weather Underground PWS IMURCIAP2 Meteoclimatic www.awekas.at

W3Counter
Web Analytics